sensor_id;sensor_type;location;lat;lon;timestamp;temperature;humidity
15107;DHT22;7654;45.308;-75.096;2024-03-07T00:00:58;4.10;99.90
15107;DHT22;7654;45.308;-75.096;2024-03-07T00:03:29;4.20;99.90
15107;DHT22;7654;45.308;-75.096;2024-03-07T00:06:00;4.10;99.90
15107;DHT22;7654;45.308;-75.096;2024-03-07T00:08:31;4.10;99.90
15107;DHT22;7654;45.308;-75.096;2024-03-07T00:11:03;4.20;99.90
15107;DHT22;7654;45.308;-75.096;2024-03-07T00:13:36;4.20;99.90
15107;DHT22;7654;45.308;-75.096;2024-03-07T00:16:12;4.20;99.90
15107;DHT22;7654;45.308;-75.096;2024-03-07T00:18:47;4.20;99.90
15107;DHT22;7654;45.308;-75.096;2024-03-07T00:21:19;4.20;99.90
15107;DHT22;7654;45.308;-75.096;2024-03-07T00:23:52;4.20;99.90
15107;DHT22;7654;45.308;-75.096;2024-03-07T00:26:34;4.20;99.90
15107;DHT22;7654;45.308;-75.096;2024-03-07T00:29:09;4.20;99.90
15107;DHT22;7654;45.308;-75.096;2024-03-07T00:31:42;4.20;99.90
15107;DHT22;7654;45.308;-75.096;2024-03-07T00:34:20;4.20;99.90
15107;DHT22;7654;45.308;-75.096;2024-03-07T00:36:54;4.20;99.90
15107;DHT22;7654;45.308;-75.096;2024-03-07T00:39:29;4.20;99.90
15107;DHT22;7654;45.308;-75.096;2024-03-07T00:42:04;4.20;99.90
15107;DHT22;7654;45.308;-75.096;2024-03-07T00:44:44;4.20;99.90
15107;DHT22;7654;45.308;-75.096;2024-03-07T00:47:19;4.20;99.90
15107;DHT22;7654;45.308;-75.096;2024-03-07T00:49:53;4.20;99.90
15107;DHT22;7654;45.308;-75.096;2024-03-07T00:52:26;4.30;99.90
15107;DHT22;7654;45.308;-75.096;2024-03-07T00:54:59;4.30;99.90
15107;DHT22;7654;45.308;-75.096;2024-03-07T00:57:41;4.30;99.90
15107;DHT22;7654;45.308;-75.096;2024-03-07T01:00:34;4.30;99.90
15107;DHT22;7654;45.308;-75.096;2024-03-07T01:03:05;4.30;99.90
15107;DHT22;7654;45.308;-75.096;2024-03-07T01:05:36;4.30;99.90
15107;DHT22;7654;45.308;-75.096;2024-03-07T01:08:06;4.30;99.90
15107;DHT22;7654;45.308;-75.096;2024-03-07T01:10:37;4.30;99.90
15107;DHT22;7654;45.308;-75.096;2024-03-07T01:13:10;4.30;99.90
15107;DHT22;7654;45.308;-75.096;2024-03-07T01:15:48;4.30;99.90
15107;DHT22;7654;45.308;-75.096;2024-03-07T01:18:18;4.30;99.90
15107;DHT22;7654;45.308;-75.096;2024-03-07T01:20:49;4.30;99.90
15107;DHT22;7654;45.308;-75.096;2024-03-07T01:23:20;4.30;99.90
15107;DHT22;7654;45.308;-75.096;2024-03-07T01:25:51;4.30;99.90
15107;DHT22;7654;45.308;-75.096;2024-03-07T01:28:26;4.30;99.90
15107;DHT22;7654;45.308;-75.096;2024-03-07T01:30:58;4.30;99.90
15107;DHT22;7654;45.308;-75.096;2024-03-07T01:33:29;4.30;99.90
15107;DHT22;7654;45.308;-75.096;2024-03-07T01:36:00;4.30;99.90
15107;DHT22;7654;45.308;-75.096;2024-03-07T01:38:31;4.20;99.90
15107;DHT22;7654;45.308;-75.096;2024-03-07T01:41:01;4.20;99.90
15107;DHT22;7654;45.308;-75.096;2024-03-07T01:43:34;4.20;99.90
15107;DHT22;7654;45.308;-75.096;2024-03-07T01:46:05;4.20;99.90
15107;DHT22;7654;45.308;-75.096;2024-03-07T01:48:36;4.20;99.90
15107;DHT22;7654;45.308;-75.096;2024-03-07T01:51:08;4.20;99.90
15107;DHT22;7654;45.308;-75.096;2024-03-07T01:53:40;4.20;99.90
15107;DHT22;7654;45.308;-75.096;2024-03-07T01:56:10;4.20;99.90
15107;DHT22;7654;45.308;-75.096;2024-03-07T01:58:46;4.20;99.90
15107;DHT22;7654;45.308;-75.096;2024-03-07T02:01:18;4.10;99.90
15107;DHT22;7654;45.308;-75.096;2024-03-07T02:03:49;4.10;99.90
15107;DHT22;7654;45.308;-75.096;2024-03-07T02:06:19;4.10;99.90
15107;DHT22;7654;45.308;-75.096;2024-03-07T02:08:52;4.10;99.90
15107;DHT22;7654;45.308;-75.096;2024-03-07T02:11:23;4.10;99.90
15107;DHT22;7654;45.308;-75.096;2024-03-07T02:13:55;4.10;99.90
15107;DHT22;7654;45.308;-75.096;2024-03-07T02:16:27;4.10;99.90
15107;DHT22;7654;45.308;-75.096;2024-03-07T02:18:58;4.10;99.90
15107;DHT22;7654;45.308;-75.096;2024-03-07T02:21:35;4.10;99.90
15107;DHT22;7654;45.308;-75.096;2024-03-07T02:24:07;4.10;99.90
15107;DHT22;7654;45.308;-75.096;2024-03-07T02:26:43;4.10;99.90
15107;DHT22;7654;45.308;-75.096;2024-03-07T02:29:14;4.20;99.90
15107;DHT22;7654;45.308;-75.096;2024-03-07T02:31:44;4.20;99.90
15107;DHT22;7654;45.308;-75.096;2024-03-07T02:34:15;4.20;99.90
15107;DHT22;7654;45.308;-75.096;2024-03-07T02:36:49;4.20;99.90
15107;DHT22;7654;45.308;-75.096;2024-03-07T02:39:21;4.20;99.90
15107;DHT22;7654;45.308;-75.096;2024-03-07T02:41:54;4.30;99.90
15107;DHT22;7654;45.308;-75.096;2024-03-07T02:44:25;4.20;99.90
15107;DHT22;7654;45.308;-75.096;2024-03-07T02:47:01;4.20;99.90
15107;DHT22;7654;45.308;-75.096;2024-03-07T02:49:32;4.20;99.90
15107;DHT22;7654;45.308;-75.096;2024-03-07T02:52:05;4.20;99.90
15107;DHT22;7654;45.308;-75.096;2024-03-07T02:54:36;4.20;99.90
15107;DHT22;7654;45.308;-75.096;2024-03-07T02:57:06;4.30;99.90
15107;DHT22;7654;45.308;-75.096;2024-03-07T02:59:38;4.30;99.90
15107;DHT22;7654;45.308;-75.096;2024-03-07T03:02:09;4.40;99.90
15107;DHT22;7654;45.308;-75.096;2024-03-07T03:04:39;4.40;99.90
15107;DHT22;7654;45.308;-75.096;2024-03-07T03:07:11;4.40;99.90
15107;DHT22;7654;45.308;-75.096;2024-03-07T03:09:41;4.40;99.90
15107;DHT22;7654;45.308;-75.096;2024-03-07T03:12:12;4.40;99.90
15107;DHT22;7654;45.308;-75.096;2024-03-07T03:14:43;4.50;99.90
15107;DHT22;7654;45.308;-75.096;2024-03-07T03:17:13;4.40;99.90
15107;DHT22;7654;45.308;-75.096;2024-03-07T03:19:44;4.50;99.90
15107;DHT22;7654;45.308;-75.096;2024-03-07T03:22:16;4.50;99.90
15107;DHT22;7654;45.308;-75.096;2024-03-07T03:24:47;4.50;99.90
15107;DHT22;7654;45.308;-75.096;2024-03-07T03:27:17;4.50;99.90
15107;DHT22;7654;45.308;-75.096;2024-03-07T03:29:47;4.50;99.90
15107;DHT22;7654;45.308;-75.096;2024-03-07T03:32:19;4.50;99.90
15107;DHT22;7654;45.308;-75.096;2024-03-07T03:34:50;4.50;99.90
15107;DHT22;7654;45.308;-75.096;2024-03-07T03:37:22;4.50;99.90
15107;DHT22;7654;45.308;-75.096;2024-03-07T03:39:52;4.40;99.90
15107;DHT22;7654;45.308;-75.096;2024-03-07T03:42:22;4.50;99.90
15107;DHT22;7654;45.308;-75.096;2024-03-07T03:44:54;4.50;99.90
15107;DHT22;7654;45.308;-75.096;2024-03-07T03:47:25;4.50;99.90
15107;DHT22;7654;45.308;-75.096;2024-03-07T03:49:56;4.50;99.90
15107;DHT22;7654;45.308;-75.096;2024-03-07T03:52:28;4.50;99.90
15107;DHT22;7654;45.308;-75.096;2024-03-07T03:54:59;4.50;99.90
15107;DHT22;7654;45.308;-75.096;2024-03-07T03:57:29;4.40;99.90
15107;DHT22;7654;45.308;-75.096;2024-03-07T04:00:00;4.40;99.90
15107;DHT22;7654;45.308;-75.096;2024-03-07T04:02:36;4.40;99.90
15107;DHT22;7654;45.308;-75.096;2024-03-07T04:05:07;4.40;99.90
15107;DHT22;7654;45.308;-75.096;2024-03-07T04:07:39;4.40;99.90
15107;DHT22;7654;45.308;-75.096;2024-03-07T04:10:11;4.40;99.90
15107;DHT22;7654;45.308;-75.096;2024-03-07T04:12:41;4.40;99.90
15107;DHT22;7654;45.308;-75.096;2024-03-07T04:15:13;4.40;99.90
15107;DHT22;7654;45.308;-75.096;2024-03-07T04:17:46;4.40;99.90
15107;DHT22;7654;45.308;-75.096;2024-03-07T04:20:17;4.40;99.90
15107;DHT22;7654;45.308;-75.096;2024-03-07T04:22:50;4.40;99.90
15107;DHT22;7654;45.308;-75.096;2024-03-07T04:25:20;4.40;99.90
15107;DHT22;7654;45.308;-75.096;2024-03-07T04:27:50;4.30;99.90
15107;DHT22;7654;45.308;-75.096;2024-03-07T04:30:21;4.30;99.90
15107;DHT22;7654;45.308;-75.096;2024-03-07T04:32:51;4.30;99.90
15107;DHT22;7654;45.308;-75.096;2024-03-07T04:35:22;4.20;99.90
15107;DHT22;7654;45.308;-75.096;2024-03-07T04:37:55;4.20;99.90
15107;DHT22;7654;45.308;-75.096;2024-03-07T04:40:25;4.10;99.90
15107;DHT22;7654;45.308;-75.096;2024-03-07T04:42:56;4.10;99.90
15107;DHT22;7654;45.308;-75.096;2024-03-07T04:45:26;4.10;99.90
15107;DHT22;7654;45.308;-75.096;2024-03-07T04:47:57;4.00;99.90
15107;DHT22;7654;45.308;-75.096;2024-03-07T04:50:27;4.00;99.90
15107;DHT22;7654;45.308;-75.096;2024-03-07T04:52:59;3.90;99.90
15107;DHT22;7654;45.308;-75.096;2024-03-07T04:55:30;3.90;99.90
15107;DHT22;7654;45.308;-75.096;2024-03-07T04:58:00;3.90;99.90
15107;DHT22;7654;45.308;-75.096;2024-03-07T05:00:31;3.90;99.90
15107;DHT22;7654;45.308;-75.096;2024-03-07T05:03:02;3.80;99.90
15107;DHT22;7654;45.308;-75.096;2024-03-07T05:05:33;3.90;99.90
15107;DHT22;7654;45.308;-75.096;2024-03-07T05:08:06;3.90;99.90
15107;DHT22;7654;45.308;-75.096;2024-03-07T05:10:36;3.90;99.90
15107;DHT22;7654;45.308;-75.096;2024-03-07T05:13:07;3.90;99.90
15107;DHT22;7654;45.308;-75.096;2024-03-07T05:15:37;3.90;99.90
15107;DHT22;7654;45.308;-75.096;2024-03-07T05:18:08;3.80;99.90
15107;DHT22;7654;45.308;-75.096;2024-03-07T05:20:41;3.70;99.90
15107;DHT22;7654;45.308;-75.096;2024-03-07T05:23:13;3.70;99.90
15107;DHT22;7654;45.308;-75.096;2024-03-07T05:25:45;3.70;99.90
15107;DHT22;7654;45.308;-75.096;2024-03-07T05:28:16;3.70;99.90
15107;DHT22;7654;45.308;-75.096;2024-03-07T05:30:47;3.70;99.90
15107;DHT22;7654;45.308;-75.096;2024-03-07T05:33:17;3.70;99.90
15107;DHT22;7654;45.308;-75.096;2024-03-07T05:35:49;3.70;99.90
15107;DHT22;7654;45.308;-75.096;2024-03-07T05:38:32;3.60;99.90
15107;DHT22;7654;45.308;-75.096;2024-03-07T05:41:04;3.60;99.90
15107;DHT22;7654;45.308;-75.096;2024-03-07T05:43:37;3.50;99.90
15107;DHT22;7654;45.308;-75.096;2024-03-07T05:46:07;3.50;99.90
15107;DHT22;7654;45.308;-75.096;2024-03-07T05:48:39;3.50;99.90
15107;DHT22;7654;45.308;-75.096;2024-03-07T05:51:09;3.50;99.90
15107;DHT22;7654;45.308;-75.096;2024-03-07T05:53:41;3.50;99.90
15107;DHT22;7654;45.308;-75.096;2024-03-07T05:56:12;3.60;99.90
15107;DHT22;7654;45.308;-75.096;2024-03-07T05:58:42;3.60;99.90
15107;DHT22;7654;45.308;-75.096;2024-03-07T06:01:13;3.60;99.90
15107;DHT22;7654;45.308;-75.096;2024-03-07T06:03:44;3.60;99.90
15107;DHT22;7654;45.308;-75.096;2024-03-07T06:06:17;3.50;99.90
15107;DHT22;7654;45.308;-75.096;2024-03-07T06:08:51;3.60;99.90
15107;DHT22;7654;45.308;-75.096;2024-03-07T06:11:22;3.60;99.90
15107;DHT22;7654;45.308;-75.096;2024-03-07T06:13:52;3.60;99.90
15107;DHT22;7654;45.308;-75.096;2024-03-07T06:16:23;3.60;99.90
15107;DHT22;7654;45.308;-75.096;2024-03-07T06:18:54;3.60;99.90
15107;DHT22;7654;45.308;-75.096;2024-03-07T06:21:24;3.60;99.90
15107;DHT22;7654;45.308;-75.096;2024-03-07T06:23:56;3.50;99.90
15107;DHT22;7654;45.308;-75.096;2024-03-07T06:26:31;3.50;99.90
15107;DHT22;7654;45.308;-75.096;2024-03-07T06:29:15;3.50;99.90
15107;DHT22;7654;45.308;-75.096;2024-03-07T06:31:46;3.40;99.90
15107;DHT22;7654;45.308;-75.096;2024-03-07T06:34:16;3.40;99.90
15107;DHT22;7654;45.308;-75.096;2024-03-07T06:36:47;3.40;99.90
15107;DHT22;7654;45.308;-75.096;2024-03-07T06:39:19;3.50;99.90
15107;DHT22;7654;45.308;-75.096;2024-03-07T06:41:50;3.50;99.90
15107;DHT22;7654;45.308;-75.096;2024-03-07T06:44:21;3.50;99.90
15107;DHT22;7654;45.308;-75.096;2024-03-07T06:46:51;3.50;99.90
15107;DHT22;7654;45.308;-75.096;2024-03-07T06:49:22;3.40;99.90
15107;DHT22;7654;45.308;-75.096;2024-03-07T06:51:52;3.40;99.90
15107;DHT22;7654;45.308;-75.096;2024-03-07T06:54:24;3.40;99.90
15107;DHT22;7654;45.308;-75.096;2024-03-07T06:56:55;3.40;99.90
15107;DHT22;7654;45.308;-75.096;2024-03-07T06:59:25;3.40;99.90
15107;DHT22;7654;45.308;-75.096;2024-03-07T07:01:55;3.40;99.90
15107;DHT22;7654;45.308;-75.096;2024-03-07T07:04:26;3.40;99.90
15107;DHT22;7654;45.308;-75.096;2024-03-07T07:07:09;3.40;99.90
15107;DHT22;7654;45.308;-75.096;2024-03-07T07:09:43;3.40;99.90
15107;DHT22;7654;45.308;-75.096;2024-03-07T07:12:13;3.50;99.90
15107;DHT22;7654;45.308;-75.096;2024-03-07T07:14:44;3.50;99.90
15107;DHT22;7654;45.308;-75.096;2024-03-07T07:17:15;3.50;99.90
15107;DHT22;7654;45.308;-75.096;2024-03-07T07:19:45;3.50;99.90
15107;DHT22;7654;45.308;-75.096;2024-03-07T07:22:16;3.50;99.90
15107;DHT22;7654;45.308;-75.096;2024-03-07T07:24:48;3.50;99.90
15107;DHT22;7654;45.308;-75.096;2024-03-07T07:27:19;3.50;99.90
15107;DHT22;7654;45.308;-75.096;2024-03-07T07:29:49;3.50;99.90
15107;DHT22;7654;45.308;-75.096;2024-03-07T07:32:20;3.50;99.90
15107;DHT22;7654;45.308;-75.096;2024-03-07T07:34:51;3.50;99.90
15107;DHT22;7654;45.308;-75.096;2024-03-07T07:37:21;3.50;99.90
15107;DHT22;7654;45.308;-75.096;2024-03-07T07:39:53;3.40;99.90
15107;DHT22;7654;45.308;-75.096;2024-03-07T07:42:23;3.40;99.90
15107;DHT22;7654;45.308;-75.096;2024-03-07T07:44:54;3.40;99.90
15107;DHT22;7654;45.308;-75.096;2024-03-07T07:47:24;3.40;99.90
15107;DHT22;7654;45.308;-75.096;2024-03-07T07:49:54;3.30;99.90
15107;DHT22;7654;45.308;-75.096;2024-03-07T07:52:25;3.30;99.90
15107;DHT22;7654;45.308;-75.096;2024-03-07T07:54:57;3.30;99.90
15107;DHT22;7654;45.308;-75.096;2024-03-07T07:57:28;3.30;99.90
15107;DHT22;7654;45.308;-75.096;2024-03-07T07:59:58;3.30;99.90
15107;DHT22;7654;45.308;-75.096;2024-03-07T08:02:28;3.30;99.90
15107;DHT22;7654;45.308;-75.096;2024-03-07T08:04:59;3.30;99.90
15107;DHT22;7654;45.308;-75.096;2024-03-07T08:07:29;3.30;99.90
15107;DHT22;7654;45.308;-75.096;2024-03-07T08:10:01;3.30;99.90
15107;DHT22;7654;45.308;-75.096;2024-03-07T08:12:31;3.30;99.90
15107;DHT22;7654;45.308;-75.096;2024-03-07T08:15:05;3.30;99.90
15107;DHT22;7654;45.308;-75.096;2024-03-07T08:17:37;3.20;99.90
15107;DHT22;7654;45.308;-75.096;2024-03-07T08:20:09;3.20;99.90
15107;DHT22;7654;45.308;-75.096;2024-03-07T08:22:40;3.20;99.90
15107;DHT22;7654;45.308;-75.096;2024-03-07T08:25:13;3.20;99.90
15107;DHT22;7654;45.308;-75.096;2024-03-07T08:27:45;3.30;99.90
15107;DHT22;7654;45.308;-75.096;2024-03-07T08:30:16;3.30;99.90
15107;DHT22;7654;45.308;-75.096;2024-03-07T08:32:48;3.30;99.90
15107;DHT22;7654;45.308;-75.096;2024-03-07T08:35:19;3.30;99.90
15107;DHT22;7654;45.308;-75.096;2024-03-07T08:37:50;3.20;99.90
15107;DHT22;7654;45.308;-75.096;2024-03-07T08:40:25;3.20;99.90
15107;DHT22;7654;45.308;-75.096;2024-03-07T08:43:00;3.20;99.90
15107;DHT22;7654;45.308;-75.096;2024-03-07T08:45:30;3.10;99.90
15107;DHT22;7654;45.308;-75.096;2024-03-07T08:48:03;3.10;99.90
15107;DHT22;7654;45.308;-75.096;2024-03-07T08:50:35;3.10;99.90
15107;DHT22;7654;45.308;-75.096;2024-03-07T08:53:07;3.10;99.90
15107;DHT22;7654;45.308;-75.096;2024-03-07T08:55:39;3.00;99.90
15107;DHT22;7654;45.308;-75.096;2024-03-07T08:58:10;3.00;99.90
15107;DHT22;7654;45.308;-75.096;2024-03-07T09:00:41;3.00;99.90
15107;DHT22;7654;45.308;-75.096;2024-03-07T09:03:13;2.90;99.90
15107;DHT22;7654;45.308;-75.096;2024-03-07T09:05:43;2.90;99.90
15107;DHT22;7654;45.308;-75.096;2024-03-07T09:08:14;2.90;99.90
15107;DHT22;7654;45.308;-75.096;2024-03-07T09:10:46;2.90;99.90
15107;DHT22;7654;45.308;-75.096;2024-03-07T09:13:16;2.90;99.90
15107;DHT22;7654;45.308;-75.096;2024-03-07T09:15:46;2.80;99.90
15107;DHT22;7654;45.308;-75.096;2024-03-07T09:18:17;2.80;99.90
15107;DHT22;7654;45.308;-75.096;2024-03-07T09:20:50;2.80;99.90
15107;DHT22;7654;45.308;-75.096;2024-03-07T09:23:21;2.70;99.90
15107;DHT22;7654;45.308;-75.096;2024-03-07T09:25:53;2.70;99.90
15107;DHT22;7654;45.308;-75.096;2024-03-07T09:28:23;2.70;99.90
15107;DHT22;7654;45.308;-75.096;2024-03-07T09:30:54;2.70;99.90
15107;DHT22;7654;45.308;-75.096;2024-03-07T09:33:25;2.70;99.90
15107;DHT22;7654;45.308;-75.096;2024-03-07T09:35:56;2.70;99.90
15107;DHT22;7654;45.308;-75.096;2024-03-07T09:38:26;2.70;99.90
15107;DHT22;7654;45.308;-75.096;2024-03-07T09:40:59;2.60;99.90
15107;DHT22;7654;45.308;-75.096;2024-03-07T09:43:30;2.60;99.90
15107;DHT22;7654;45.308;-75.096;2024-03-07T09:46:03;2.60;99.90
15107;DHT22;7654;45.308;-75.096;2024-03-07T09:48:34;2.50;99.90
15107;DHT22;7654;45.308;-75.096;2024-03-07T09:51:05;2.50;99.90
15107;DHT22;7654;45.308;-75.096;2024-03-07T09:53:37;2.50;99.90
15107;DHT22;7654;45.308;-75.096;2024-03-07T09:56:12;2.50;99.90
15107;DHT22;7654;45.308;-75.096;2024-03-07T09:58:45;2.50;99.90
15107;DHT22;7654;45.308;-75.096;2024-03-07T10:01:20;2.40;99.90
15107;DHT22;7654;45.308;-75.096;2024-03-07T10:03:52;2.40;99.90
15107;DHT22;7654;45.308;-75.096;2024-03-07T10:06:24;2.40;99.90
15107;DHT22;7654;45.308;-75.096;2024-03-07T10:08:57;2.40;99.90
15107;DHT22;7654;45.308;-75.096;2024-03-07T10:11:29;2.50;99.90
15107;DHT22;7654;45.308;-75.096;2024-03-07T10:14:01;2.40;99.90
15107;DHT22;7654;45.308;-75.096;2024-03-07T10:16:33;2.50;99.90
15107;DHT22;7654;45.308;-75.096;2024-03-07T10:19:05;2.40;99.90
15107;DHT22;7654;45.308;-75.096;2024-03-07T10:21:36;2.40;99.90
15107;DHT22;7654;45.308;-75.096;2024-03-07T10:24:07;2.30;99.90
15107;DHT22;7654;45.308;-75.096;2024-03-07T10:26:41;2.40;99.90
15107;DHT22;7654;45.308;-75.096;2024-03-07T10:29:14;2.30;99.90
15107;DHT22;7654;45.308;-75.096;2024-03-07T10:31:44;2.30;99.90
15107;DHT22;7654;45.308;-75.096;2024-03-07T10:34:33;2.20;99.90
15107;DHT22;7654;45.308;-75.096;2024-03-07T10:37:05;2.20;99.90
15107;DHT22;7654;45.308;-75.096;2024-03-07T10:39:37;2.10;99.90
15107;DHT22;7654;45.308;-75.096;2024-03-07T10:42:14;2.10;99.90
15107;DHT22;7654;45.308;-75.096;2024-03-07T10:44:45;2.10;99.90
15107;DHT22;7654;45.308;-75.096;2024-03-07T10:47:16;2.00;99.90
15107;DHT22;7654;45.308;-75.096;2024-03-07T10:49:58;2.00;99.90
15107;DHT22;7654;45.308;-75.096;2024-03-07T10:52:34;2.00;99.90
15107;DHT22;7654;45.308;-75.096;2024-03-07T10:55:15;2.00;99.90
15107;DHT22;7654;45.308;-75.096;2024-03-07T10:57:52;2.00;99.90
15107;DHT22;7654;45.308;-75.096;2024-03-07T11:00:27;2.00;99.90
15107;DHT22;7654;45.308;-75.096;2024-03-07T11:03:05;1.90;99.90
15107;DHT22;7654;45.308;-75.096;2024-03-07T11:05:37;1.90;99.90
15107;DHT22;7654;45.308;-75.096;2024-03-07T11:08:08;1.90;99.90
15107;DHT22;7654;45.308;-75.096;2024-03-07T11:10:42;1.80;99.90
15107;DHT22;7654;45.308;-75.096;2024-03-07T11:13:18;1.80;99.90
15107;DHT22;7654;45.308;-75.096;2024-03-07T11:15:51;1.80;99.90
15107;DHT22;7654;45.308;-75.096;2024-03-07T11:18:26;1.90;99.90
15107;DHT22;7654;45.308;-75.096;2024-03-07T11:20:57;1.80;99.90
15107;DHT22;7654;45.308;-75.096;2024-03-07T11:23:29;1.80;99.90
15107;DHT22;7654;45.308;-75.096;2024-03-07T11:26:05;1.80;99.90
15107;DHT22;7654;45.308;-75.096;2024-03-07T11:28:39;1.80;99.90
15107;DHT22;7654;45.308;-75.096;2024-03-07T11:31:14;1.80;99.90
15107;DHT22;7654;45.308;-75.096;2024-03-07T11:34:13;1.80;99.90
15107;DHT22;7654;45.308;-75.096;2024-03-07T11:36:45;1.80;99.90
15107;DHT22;7654;45.308;-75.096;2024-03-07T11:39:39;1.90;99.90
15107;DHT22;7654;45.308;-75.096;2024-03-07T11:42:20;1.80;99.90
15107;DHT22;7654;45.308;-75.096;2024-03-07T11:44:56;1.80;99.90
15107;DHT22;7654;45.308;-75.096;2024-03-07T11:47:34;1.70;99.90
15107;DHT22;7654;45.308;-75.096;2024-03-07T11:50:08;1.70;99.90
15107;DHT22;7654;45.308;-75.096;2024-03-07T11:52:40;1.70;99.90
15107;DHT22;7654;45.308;-75.096;2024-03-07T11:55:12;1.70;99.90
15107;DHT22;7654;45.308;-75.096;2024-03-07T11:57:43;1.70;99.90
15107;DHT22;7654;45.308;-75.096;2024-03-07T12:00:19;1.80;99.90
15107;DHT22;7654;45.308;-75.096;2024-03-07T12:02:48;1.80;99.90
15107;DHT22;7654;45.308;-75.096;2024-03-07T12:05:19;1.80;99.90
15107;DHT22;7654;45.308;-75.096;2024-03-07T12:07:49;1.80;99.90
15107;DHT22;7654;45.308;-75.096;2024-03-07T12:10:20;1.80;99.90
15107;DHT22;7654;45.308;-75.096;2024-03-07T12:12:55;1.80;99.90
15107;DHT22;7654;45.308;-75.096;2024-03-07T12:15:27;1.80;99.90
15107;DHT22;7654;45.308;-75.096;2024-03-07T12:17:58;1.80;99.90
15107;DHT22;7654;45.308;-75.096;2024-03-07T12:20:30;1.90;99.90
15107;DHT22;7654;45.308;-75.096;2024-03-07T12:23:02;1.90;99.90
15107;DHT22;7654;45.308;-75.096;2024-03-07T12:25:34;2.00;99.90
15107;DHT22;7654;45.308;-75.096;2024-03-07T12:28:06;2.00;99.90
15107;DHT22;7654;45.308;-75.096;2024-03-07T12:30:50;2.00;99.90
15107;DHT22;7654;45.308;-75.096;2024-03-07T12:33:24;2.00;99.90
15107;DHT22;7654;45.308;-75.096;2024-03-07T12:35:55;2.10;99.90
15107;DHT22;7654;45.308;-75.096;2024-03-07T12:38:37;2.10;99.90
15107;DHT22;7654;45.308;-75.096;2024-03-07T12:41:11;2.10;99.90
15107;DHT22;7654;45.308;-75.096;2024-03-07T12:43:45;2.20;99.90
15107;DHT22;7654;45.308;-75.096;2024-03-07T12:46:18;2.20;99.90
15107;DHT22;7654;45.308;-75.096;2024-03-07T12:48:48;2.20;99.90
15107;DHT22;7654;45.308;-75.096;2024-03-07T12:51:19;2.20;99.90
15107;DHT22;7654;45.308;-75.096;2024-03-07T12:53:51;2.20;99.90
15107;DHT22;7654;45.308;-75.096;2024-03-07T12:56:22;2.20;99.90
15107;DHT22;7654;45.308;-75.096;2024-03-07T12:58:52;2.20;99.90
15107;DHT22;7654;45.308;-75.096;2024-03-07T13:01:26;2.20;99.90
15107;DHT22;7654;45.308;-75.096;2024-03-07T13:03:56;2.30;99.90
15107;DHT22;7654;45.308;-75.096;2024-03-07T13:06:27;2.40;99.90
15107;DHT22;7654;45.308;-75.096;2024-03-07T13:08:58;2.40;99.90
15107;DHT22;7654;45.308;-75.096;2024-03-07T13:11:29;2.40;99.90
15107;DHT22;7654;45.308;-75.096;2024-03-07T13:14:01;2.50;99.90
15107;DHT22;7654;45.308;-75.096;2024-03-07T13:16:33;2.50;99.90
15107;DHT22;7654;45.308;-75.096;2024-03-07T13:19:03;2.60;99.90
15107;DHT22;7654;45.308;-75.096;2024-03-07T13:21:34;2.70;99.90
15107;DHT22;7654;45.308;-75.096;2024-03-07T13:24:06;2.70;99.90
15107;DHT22;7654;45.308;-75.096;2024-03-07T13:26:37;2.80;99.90
15107;DHT22;7654;45.308;-75.096;2024-03-07T13:29:09;2.80;99.90
15107;DHT22;7654;45.308;-75.096;2024-03-07T13:31:44;2.80;99.90
15107;DHT22;7654;45.308;-75.096;2024-03-07T13:34:14;2.70;99.90
15107;DHT22;7654;45.308;-75.096;2024-03-07T13:36:45;2.70;99.90
15107;DHT22;7654;45.308;-75.096;2024-03-07T13:39:15;2.70;99.90
15107;DHT22;7654;45.308;-75.096;2024-03-07T13:41:46;2.70;99.90
15107;DHT22;7654;45.308;-75.096;2024-03-07T13:44:17;2.70;99.90
15107;DHT22;7654;45.308;-75.096;2024-03-07T13:46:49;2.70;99.90
15107;DHT22;7654;45.308;-75.096;2024-03-07T13:49:21;2.70;99.90
15107;DHT22;7654;45.308;-75.096;2024-03-07T13:51:52;2.70;99.90
15107;DHT22;7654;45.308;-75.096;2024-03-07T13:54:28;2.80;99.90
15107;DHT22;7654;45.308;-75.096;2024-03-07T13:57:21;2.80;99.90
15107;DHT22;7654;45.308;-75.096;2024-03-07T14:00:06;2.90;99.90
15107;DHT22;7654;45.308;-75.096;2024-03-07T14:05:56;3.10;99.90
15107;DHT22;7654;45.308;-75.096;2024-03-07T14:09:22;3.30;99.90
15107;DHT22;7654;45.308;-75.096;2024-03-07T14:12:32;3.40;99.90
15107;DHT22;7654;45.308;-75.096;2024-03-07T14:21:55;3.90;99.90
15107;DHT22;7654;45.308;-75.096;2024-03-07T14:27:30;4.40;99.90
15107;DHT22;7654;45.308;-75.096;2024-03-07T14:30:24;4.50;99.90
15107;DHT22;7654;45.308;-75.096;2024-03-07T14:33:00;4.70;99.90
15107;DHT22;7654;45.308;-75.096;2024-03-07T14:35:35;4.80;99.90
15107;DHT22;7654;45.308;-75.096;2024-03-07T14:38:26;4.80;99.90
15107;DHT22;7654;45.308;-75.096;2024-03-07T14:40:58;4.90;99.90
15107;DHT22;7654;45.308;-75.096;2024-03-07T14:43:30;4.90;99.90
15107;DHT22;7654;45.308;-75.096;2024-03-07T14:46:01;4.90;99.90
15107;DHT22;7654;45.308;-75.096;2024-03-07T14:48:31;4.90;99.90
15107;DHT22;7654;45.308;-75.096;2024-03-07T14:51:03;5.00;99.90
15107;DHT22;7654;45.308;-75.096;2024-03-07T14:53:35;5.10;99.90
15107;DHT22;7654;45.308;-75.096;2024-03-07T14:56:06;5.20;99.90
15107;DHT22;7654;45.308;-75.096;2024-03-07T14:58:37;5.20;99.90
15107;DHT22;7654;45.308;-75.096;2024-03-07T15:01:08;5.30;99.90
15107;DHT22;7654;45.308;-75.096;2024-03-07T15:03:41;5.40;99.90
15107;DHT22;7654;45.308;-75.096;2024-03-07T15:06:13;5.40;99.90
15107;DHT22;7654;45.308;-75.096;2024-03-07T15:08:46;5.50;99.90
15107;DHT22;7654;45.308;-75.096;2024-03-07T15:11:25;5.50;99.90
15107;DHT22;7654;45.308;-75.096;2024-03-07T15:13:59;5.70;99.90
15107;DHT22;7654;45.308;-75.096;2024-03-07T15:16:32;5.80;99.90
15107;DHT22;7654;45.308;-75.096;2024-03-07T15:19:06;5.90;99.90
15107;DHT22;7654;45.308;-75.096;2024-03-07T15:21:37;5.90;99.90
15107;DHT22;7654;45.308;-75.096;2024-03-07T15:24:09;6.00;99.90
15107;DHT22;7654;45.308;-75.096;2024-03-07T15:26:41;6.00;99.90
15107;DHT22;7654;45.308;-75.096;2024-03-07T15:29:15;6.10;99.90
15107;DHT22;7654;45.308;-75.096;2024-03-07T15:31:50;6.20;99.90
15107;DHT22;7654;45.308;-75.096;2024-03-07T15:34:21;6.30;99.90
15107;DHT22;7654;45.308;-75.096;2024-03-07T15:37:01;6.50;99.90
15107;DHT22;7654;45.308;-75.096;2024-03-07T15:39:33;6.50;99.90
15107;DHT22;7654;45.308;-75.096;2024-03-07T15:42:07;6.50;99.90
15107;DHT22;7654;45.308;-75.096;2024-03-07T15:44:40;6.80;99.90
15107;DHT22;7654;45.308;-75.096;2024-03-07T15:47:13;6.90;99.90
15107;DHT22;7654;45.308;-75.096;2024-03-07T15:49:44;7.00;99.90
15107;DHT22;7654;45.308;-75.096;2024-03-07T15:52:15;7.10;99.90
15107;DHT22;7654;45.308;-75.096;2024-03-07T15:54:48;7.20;99.90
15107;DHT22;7654;45.308;-75.096;2024-03-07T15:57:19;7.20;99.90
15107;DHT22;7654;45.308;-75.096;2024-03-07T15:59:50;7.20;99.90
15107;DHT22;7654;45.308;-75.096;2024-03-07T16:02:22;7.20;99.90
15107;DHT22;7654;45.308;-75.096;2024-03-07T16:04:52;7.30;99.90
15107;DHT22;7654;45.308;-75.096;2024-03-07T16:07:25;7.30;99.90
15107;DHT22;7654;45.308;-75.096;2024-03-07T16:09:57;7.30;99.90
15107;DHT22;7654;45.308;-75.096;2024-03-07T16:12:28;7.20;99.90
15107;DHT22;7654;45.308;-75.096;2024-03-07T16:15:02;7.30;99.90
15107;DHT22;7654;45.308;-75.096;2024-03-07T16:17:32;7.50;99.90